createdAt,value
2023-01-06T00:00:23.652Z,0.80
2023-01-06T00:02:50.657Z,0.60
2023-01-06T00:05:17.274Z,0.70
2023-01-06T00:07:44.223Z,0.70
2023-01-06T00:10:11.459Z,0.67
2023-01-06T00:12:38.105Z,0.80
2023-01-06T00:15:05.113Z,0.80
2023-01-06T00:17:31.752Z,0.70
2023-01-06T00:19:58.447Z,0.80
2023-01-06T00:22:25.067Z,0.70
2023-01-06T00:24:51.669Z,0.90
2023-01-06T00:27:18.263Z,0.60
2023-01-06T00:29:44.922Z,0.73
2023-01-06T00:32:11.521Z,0.90
2023-01-06T00:34:38.133Z,0.77
2023-01-06T00:37:05.012Z,0.90
2023-01-06T00:39:31.685Z,0.60
2023-01-06T00:42:03.929Z,0.77
2023-01-06T00:44:40.071Z,0.73
2023-01-06T00:47:09.066Z,0.70
2023-01-06T00:49:35.953Z,0.60
2023-01-06T00:52:02.800Z,0.70
2023-01-06T00:54:29.452Z,0.70
2023-01-06T00:56:56.088Z,0.50
2023-01-06T00:59:23.588Z,0.50
2023-01-06T01:01:52.273Z,0.53
2023-01-06T01:04:19.371Z,0.60
2023-01-06T01:06:46.572Z,0.70
2023-01-06T01:09:18.449Z,0.50
2023-01-06T01:12:04.099Z,0.73
2023-01-06T01:14:30.767Z,0.60
2023-01-06T01:16:57.404Z,0.60
2023-01-06T01:19:24.116Z,0.53
2023-01-06T01:21:50.783Z,0.60
2023-01-06T01:24:17.691Z,0.73
2023-01-06T01:26:44.537Z,0.60
2023-01-06T01:29:12.862Z,0.57
2023-01-06T01:31:39.659Z,0.60
2023-01-06T01:34:06.369Z,0.40
2023-01-06T01:36:33.051Z,0.80
2023-01-06T01:38:59.761Z,0.50
2023-01-06T01:41:27.049Z,0.70
2023-01-06T01:43:55.900Z,0.70
2023-01-06T01:46:42.406Z,0.60
2023-01-06T01:49:20.610Z,0.70
2023-01-06T01:51:48.349Z,0.53
2023-01-06T01:54:24.983Z,0.73
2023-01-06T01:57:06.384Z,0.60
2023-01-06T01:59:33.584Z,0.60
2023-01-06T02:02:00.587Z,0.63
2023-01-06T02:04:27.427Z,0.80
2023-01-06T02:06:54.104Z,0.60
2023-01-06T02:09:32.854Z,0.60
2023-01-06T02:11:59.444Z,0.47
2023-01-06T02:14:27.448Z,0.53
2023-01-06T02:17:30.285Z,0.60
2023-01-06T02:20:28.530Z,0.60
2023-01-06T02:23:04.033Z,0.70
2023-01-06T02:25:53.676Z,0.60
2023-01-06T02:28:59.464Z,0.40
2023-01-06T02:31:41.334Z,0.70
2023-01-06T02:34:14.008Z,0.60
2023-01-06T02:36:53.114Z,0.50
2023-01-06T02:39:50.947Z,0.50
2023-01-06T02:42:21.256Z,0.50
2023-01-06T02:45:16.400Z,0.50
2023-01-06T02:48:01.400Z,0.60
2023-01-06T02:50:36.761Z,0.50
2023-01-06T02:53:10.639Z,0.70
2023-01-06T02:55:46.442Z,0.60
2023-01-06T02:58:24.960Z,0.70
2023-01-06T03:01:01.695Z,0.60
2023-01-06T03:03:29.254Z,0.80
2023-01-06T03:05:58.838Z,0.70
2023-01-06T03:08:27.162Z,0.80
2023-01-06T03:10:53.946Z,0.80
2023-01-06T03:13:42.425Z,0.80
2023-01-06T03:16:09.182Z,0.93
2023-01-06T03:18:36.151Z,0.90
2023-01-06T03:21:05.866Z,0.90
2023-01-06T03:23:33.097Z,0.80
2023-01-06T03:25:59.699Z,0.70
2023-01-06T03:28:26.279Z,1.07
2023-01-06T03:30:58.225Z,0.70
2023-01-06T03:33:31.536Z,1.00
2023-01-06T03:36:10.817Z,0.83
2023-01-06T03:38:43.462Z,1.00
2023-01-06T03:41:49.977Z,0.83
2023-01-06T03:44:22.864Z,0.70
2023-01-06T03:46:52.862Z,0.80
2023-01-06T03:49:35.020Z,0.80
2023-01-06T03:52:39.949Z,0.83
2023-01-06T03:55:09.076Z,0.80
2023-01-06T03:57:46.283Z,0.90
2023-01-06T04:00:16.623Z,0.80
2023-01-06T04:02:43.232Z,0.80
2023-01-06T04:05:14.110Z,0.90
2023-01-06T04:07:41.407Z,0.80
2023-01-06T04:10:08.359Z,0.80
2023-01-06T04:12:40.712Z,1.00
2023-01-06T04:15:11.635Z,0.80
2023-01-06T04:17:38.817Z,0.83
2023-01-06T04:20:06.687Z,0.80
2023-01-06T04:22:33.293Z,0.87
2023-01-06T04:24:59.902Z,0.80
2023-01-06T04:27:26.515Z,0.70
2023-01-06T04:29:53.211Z,0.90
2023-01-06T04:32:19.864Z,1.03
2023-01-06T04:34:46.502Z,0.80
2023-01-06T04:37:13.131Z,0.93
2023-01-06T04:39:39.774Z,0.80
2023-01-06T04:42:06.401Z,0.80
2023-01-06T04:44:33.015Z,0.90
2023-01-06T04:46:59.607Z,0.90
2023-01-06T04:49:26.243Z,0.80
2023-01-06T04:51:52.841Z,0.90
2023-01-06T04:54:19.481Z,1.03
2023-01-06T04:56:46.133Z,0.63
2023-01-06T04:59:12.793Z,0.73
2023-01-06T05:01:39.458Z,0.73
2023-01-06T05:04:07.326Z,0.67
2023-01-06T05:06:35.159Z,0.90
2023-01-06T05:09:01.931Z,0.60
2023-01-06T05:11:28.520Z,0.70
2023-01-06T05:13:55.123Z,0.70
2023-01-06T05:16:28.847Z,0.50
2023-01-06T05:18:55.480Z,1.17
2023-01-06T05:21:24.767Z,0.70
2023-01-06T05:23:51.541Z,0.53
2023-01-06T05:26:19.975Z,0.60
2023-01-06T05:28:46.671Z,0.60
2023-01-06T05:31:13.400Z,0.60
2023-01-06T05:33:40.051Z,0.57
2023-01-06T05:36:11.540Z,0.60
2023-01-06T05:38:38.234Z,0.47
2023-01-06T05:41:04.993Z,0.50
2023-01-06T05:43:33.137Z,0.50
2023-01-06T05:46:00.407Z,0.70
2023-01-06T05:48:27.423Z,0.70
2023-01-06T05:51:00.879Z,0.60
2023-01-06T05:53:27.472Z,0.87
2023-01-06T05:55:59.562Z,0.70
2023-01-06T05:58:26.196Z,0.60
2023-01-06T06:00:52.807Z,0.60
2023-01-06T06:03:19.392Z,0.70
2023-01-06T06:05:46.123Z,0.70
2023-01-06T06:08:12.757Z,0.70
2023-01-06T06:10:39.347Z,0.80
2023-01-06T06:13:05.946Z,0.80
2023-01-06T06:15:32.556Z,0.60
2023-01-06T06:17:59.233Z,0.53
2023-01-06T06:20:25.843Z,0.53
2023-01-06T06:22:52.438Z,0.50
2023-01-06T06:25:19.052Z,0.70
2023-01-06T06:27:45.644Z,0.60
2023-01-06T06:30:12.548Z,0.50
2023-01-06T06:32:39.143Z,0.50
2023-01-06T06:35:06.179Z,0.53
2023-01-06T06:37:33.833Z,0.67
2023-01-06T06:40:00.455Z,0.60
2023-01-06T06:42:27.044Z,0.57
2023-01-06T06:44:53.641Z,0.60
2023-01-06T06:47:20.244Z,0.47
2023-01-06T06:49:46.855Z,0.40
2023-01-06T06:52:13.535Z,0.30
2023-01-06T06:54:40.147Z,0.40
2023-01-06T06:57:06.725Z,0.50
2023-01-06T06:59:33.340Z,0.40
2023-01-06T07:02:00.050Z,0.43
2023-01-06T07:04:26.801Z,0.40
2023-01-06T07:06:53.420Z,0.40
2023-01-06T07:09:20.062Z,0.50
2023-01-06T07:11:46.653Z,0.57
2023-01-06T07:14:13.259Z,0.50
2023-01-06T07:16:39.878Z,0.43
2023-01-06T07:19:08.320Z,0.30
2023-01-06T07:21:35.053Z,0.40
2023-01-06T07:24:01.660Z,0.20
2023-01-06T07:26:28.267Z,0.30
2023-01-06T07:28:54.853Z,0.30
2023-01-06T07:31:21.529Z,0.30
2023-01-06T07:33:48.201Z,0.50
2023-01-06T07:36:14.804Z,0.40
2023-01-06T07:38:41.391Z,0.50
2023-01-06T07:41:08.021Z,0.40
2023-01-06T07:43:34.620Z,0.40
2023-01-06T07:46:01.253Z,0.40
2023-01-06T07:48:27.949Z,0.30
2023-01-06T07:50:54.565Z,0.30
2023-01-06T07:53:21.470Z,0.40
2023-01-06T07:55:54.298Z,0.40
2023-01-06T07:58:21.294Z,0.33
2023-01-06T08:00:47.893Z,0.40
2023-01-06T08:03:14.512Z,0.40
2023-01-06T08:05:42.033Z,0.30
2023-01-06T08:08:09.447Z,0.40
2023-01-06T08:10:39.405Z,0.30
2023-01-06T08:13:05.996Z,0.20
2023-01-06T08:15:32.688Z,0.30
2023-01-06T08:17:59.325Z,0.20
2023-01-06T08:20:25.954Z,0.20
2023-01-06T08:22:52.567Z,0.50
2023-01-06T08:25:19.202Z,0.30
2023-01-06T08:27:45.818Z,0.30
2023-01-06T08:30:12.641Z,0.30
2023-01-06T08:32:39.244Z,0.40
2023-01-06T08:35:06.273Z,0.50
2023-01-06T08:37:32.854Z,0.30
2023-01-06T08:39:59.469Z,0.50
2023-01-06T08:42:26.075Z,0.40
2023-01-06T08:44:52.667Z,0.30
2023-01-06T08:47:19.426Z,0.30
2023-01-06T08:49:46.034Z,0.30
2023-01-06T08:52:12.626Z,0.40
2023-01-06T08:54:39.242Z,0.33
2023-01-06T08:57:06.387Z,0.30
2023-01-06T08:59:33.011Z,0.40
2023-01-06T09:01:59.687Z,0.20
2023-01-06T09:04:26.365Z,0.50
2023-01-06T09:06:53.013Z,0.20
2023-01-06T09:09:19.646Z,0.23
2023-01-06T09:11:46.575Z,0.30
2023-01-06T09:14:16.307Z,0.40
2023-01-06T09:16:42.982Z,0.40
2023-01-06T09:19:12.328Z,0.30
2023-01-06T09:21:39.642Z,0.20
2023-01-06T09:24:06.564Z,0.30
2023-01-06T09:26:33.160Z,0.30
2023-01-06T09:28:59.804Z,0.20
2023-01-06T09:31:26.863Z,0.20
2023-01-06T09:33:54.000Z,0.20
2023-01-06T09:36:20.628Z,0.20
2023-01-06T09:38:47.275Z,0.20
2023-01-06T09:41:26.863Z,0.20
2023-01-06T09:44:19.353Z,0.30
2023-01-06T09:46:47.026Z,0.20
2023-01-06T09:49:39.550Z,0.20
2023-01-06T09:52:33.281Z,0.30
2023-01-06T09:55:03.230Z,0.37
2023-01-06T09:57:37.349Z,0.30
2023-01-06T10:00:43.158Z,0.30
2023-01-06T10:03:23.506Z,0.20
2023-01-06T10:06:11.371Z,0.30
2023-01-06T10:08:50.563Z,0.10
2023-01-06T10:11:55.208Z,0.20
2023-01-06T10:14:33.615Z,0.20
2023-01-06T10:17:21.145Z,0.20
2023-01-06T10:19:54.714Z,0.20
2023-01-06T10:22:33.196Z,0.20
2023-01-06T10:25:32.929Z,0.10
2023-01-06T10:28:22.245Z,0.20
2023-01-06T10:30:52.499Z,0.20
2023-01-06T10:33:24.093Z,0.20
2023-01-06T10:35:51.561Z,0.30
2023-01-06T10:38:18.586Z,0.20
2023-01-06T10:40:45.183Z,0.30
2023-01-06T10:43:12.735Z,0.17
2023-01-06T10:45:43.708Z,0.30
2023-01-06T10:48:14.035Z,0.20
2023-01-06T10:50:40.660Z,0.30
2023-01-06T10:53:07.456Z,0.20
2023-01-06T10:55:47.266Z,0.20
2023-01-06T10:58:24.571Z,0.23
2023-01-06T11:01:06.693Z,0.20
2023-01-06T11:03:34.795Z,0.20
2023-01-06T11:06:26.701Z,0.20
2023-01-06T11:08:53.295Z,0.20
2023-01-06T11:11:29.410Z,0.20
2023-01-06T11:14:01.113Z,0.20
2023-01-06T11:16:29.192Z,0.30
2023-01-06T11:19:00.852Z,0.30
2023-01-06T11:21:40.540Z,0.30
2023-01-06T11:24:23.079Z,0.13
2023-01-06T11:27:00.508Z,0.10
2023-01-06T11:29:36.294Z,0.10
2023-01-06T11:32:14.178Z,0.20
2023-01-06T11:34:40.989Z,0.30
2023-01-06T11:37:07.599Z,0.20
2023-01-06T11:39:35.593Z,0.20
2023-01-06T11:42:10.469Z,0.20
2023-01-06T11:44:38.453Z,0.20
2023-01-06T11:47:19.902Z,0.20
2023-01-06T11:49:47.689Z,0.20
2023-01-06T11:52:25.128Z,0.20
2023-01-06T11:55:07.065Z,0.20
2023-01-06T11:57:50.902Z,0.20
2023-01-06T12:00:30.673Z,0.30
2023-01-06T12:03:26.187Z,0.20
2023-01-06T12:06:14.092Z,0.23
2023-01-06T12:08:59.977Z,0.20
2023-01-06T12:11:47.092Z,0.20
2023-01-06T12:14:28.828Z,0.30
2023-01-06T12:17:17.692Z,0.27
2023-01-06T12:20:10.485Z,0.30
2023-01-06T12:22:49.674Z,0.40
2023-01-06T12:25:33.038Z,0.20
2023-01-06T12:28:05.486Z,0.30
2023-01-06T12:30:48.121Z,0.30
2023-01-06T12:33:22.469Z,0.30
2023-01-06T12:35:49.953Z,0.30
2023-01-06T12:38:39.387Z,0.30
2023-01-06T12:41:14.459Z,0.30
2023-01-06T12:43:41.413Z,0.20
2023-01-06T12:46:20.373Z,0.20
2023-01-06T12:49:06.115Z,0.20
2023-01-06T12:51:37.158Z,0.30
2023-01-06T12:54:08.031Z,0.27
2023-01-06T12:57:06.926Z,0.20
2023-01-06T12:59:57.451Z,0.20
2023-01-06T13:02:30.276Z,0.30
2023-01-06T13:05:31.756Z,0.20
2023-01-06T13:08:21.450Z,0.40
2023-01-06T13:10:51.085Z,0.30
2023-01-06T13:13:26.436Z,0.30
2023-01-06T13:15:53.272Z,0.20
2023-01-06T13:19:04.450Z,0.30
2023-01-06T13:21:31.386Z,0.27
2023-01-06T13:24:20.309Z,0.20
2023-01-06T13:26:51.075Z,0.27
2023-01-06T13:29:32.685Z,0.20
2023-01-06T13:31:59.267Z,0.20
2023-01-06T13:34:57.974Z,0.30
2023-01-06T13:37:51.807Z,0.20
2023-01-06T13:40:26.955Z,0.30
2023-01-06T13:43:04.591Z,0.30
2023-01-06T13:45:33.788Z,0.30
2023-01-06T13:48:00.721Z,0.30
2023-01-06T13:50:27.360Z,0.30
2023-01-06T13:52:54.079Z,0.20
2023-01-06T13:55:31.402Z,0.30
2023-01-06T13:57:59.212Z,0.30
2023-01-06T14:00:27.313Z,0.27
2023-01-06T14:02:53.896Z,0.20
2023-01-06T14:05:21.123Z,0.30
2023-01-06T14:07:59.627Z,0.40
2023-01-06T14:10:34.811Z,0.30
2023-01-06T14:13:02.085Z,0.30
2023-01-06T14:15:32.986Z,0.30
2023-01-06T14:18:02.763Z,0.20
2023-01-06T14:20:34.469Z,0.30
2023-01-06T14:23:05.770Z,0.40
2023-01-06T14:25:39.316Z,0.37
2023-01-06T14:28:07.474Z,0.40
2023-01-06T14:30:35.003Z,0.40
2023-01-06T14:33:04.561Z,0.30
2023-01-06T14:35:35.848Z,0.20
2023-01-06T14:38:06.785Z,0.30
2023-01-06T14:40:39.395Z,0.20
2023-01-06T14:43:33.312Z,0.40
2023-01-06T14:46:04.424Z,0.27
2023-01-06T14:48:31.044Z,0.40
2023-01-06T14:50:58.851Z,0.40
2023-01-06T14:53:34.629Z,0.30
2023-01-06T14:56:01.354Z,0.30
2023-01-06T14:58:31.647Z,0.37
2023-01-06T15:00:58.543Z,0.40
2023-01-06T15:03:25.965Z,0.30
2023-01-06T15:06:09.375Z,0.30
2023-01-06T15:08:35.988Z,0.27
2023-01-06T15:11:33.600Z,0.40
2023-01-06T15:14:00.210Z,0.40
2023-01-06T15:16:29.546Z,0.30
2023-01-06T15:18:56.229Z,0.40
2023-01-06T15:21:23.675Z,0.47
2023-01-06T15:23:51.673Z,0.40
2023-01-06T15:26:25.564Z,0.30
2023-01-06T15:29:02.960Z,0.47
2023-01-06T15:31:37.110Z,0.40
2023-01-06T15:34:14.927Z,0.30
2023-01-06T15:36:45.102Z,0.33
2023-01-06T15:39:13.566Z,0.30
2023-01-06T15:41:40.710Z,0.30
2023-01-06T15:44:37.372Z,0.40
2023-01-06T15:47:12.851Z,0.30
2023-01-06T15:49:43.785Z,0.30
2023-01-06T15:52:27.950Z,0.30
2023-01-06T15:54:55.652Z,0.30
2023-01-06T15:57:22.395Z,0.20
2023-01-06T15:59:57.157Z,0.30
2023-01-06T16:02:25.943Z,0.30
2023-01-06T16:04:52.782Z,0.30
2023-01-06T16:07:42.996Z,0.20
2023-01-06T16:10:29.282Z,0.40
2023-01-06T16:13:15.823Z,0.40
2023-01-06T16:15:47.694Z,0.20
2023-01-06T16:18:14.805Z,0.40
2023-01-06T16:20:41.455Z,0.50
2023-01-06T16:23:17.187Z,0.40
2023-01-06T16:25:43.807Z,0.40
2023-01-06T16:28:16.460Z,0.50
2023-01-06T16:30:43.089Z,0.70
2023-01-06T16:33:35.191Z,0.50
2023-01-06T16:36:01.804Z,0.60
2023-01-06T16:38:28.407Z,0.77
2023-01-06T16:40:54.997Z,0.77
2023-01-06T16:43:21.583Z,0.70
2023-01-06T16:45:50.910Z,0.60
2023-01-06T16:48:17.697Z,0.70
2023-01-06T16:50:46.357Z,0.80
2023-01-06T16:53:18.317Z,0.60
2023-01-06T16:55:45.602Z,0.70
2023-01-06T16:58:18.135Z,0.50
2023-01-06T17:00:48.129Z,0.80
2023-01-06T17:03:16.413Z,0.70
2023-01-06T17:05:43.116Z,0.60
2023-01-06T17:08:12.103Z,0.60
2023-01-06T17:10:38.716Z,0.60
2023-01-06T17:13:23.652Z,0.60
2023-01-06T17:16:00.648Z,0.60
2023-01-06T17:18:28.815Z,0.60
2023-01-06T17:21:13.356Z,0.57
2023-01-06T17:23:46.806Z,0.47
2023-01-06T17:26:20.307Z,0.50
2023-01-06T17:28:47.378Z,0.50
2023-01-06T17:31:21.443Z,0.40
2023-01-06T17:33:48.072Z,0.60
2023-01-06T17:36:21.904Z,0.63
2023-01-06T17:38:49.684Z,0.60
2023-01-06T17:41:17.543Z,0.70
2023-01-06T17:43:44.607Z,1.10
2023-01-06T17:46:30.184Z,0.80
2023-01-06T17:49:17.112Z,0.73
2023-01-06T17:51:43.702Z,0.73
2023-01-06T17:54:35.185Z,0.83
2023-01-06T17:57:01.910Z,0.90
2023-01-06T17:59:28.520Z,0.80
2023-01-06T18:01:55.283Z,0.90
2023-01-06T18:04:21.988Z,0.90
2023-01-06T18:06:52.720Z,0.80
2023-01-06T18:09:22.237Z,0.70
2023-01-06T18:11:52.564Z,0.80
2023-01-06T18:14:22.018Z,1.07
2023-01-06T18:16:50.156Z,1.10
2023-01-06T18:19:34.926Z,1.20
2023-01-06T18:22:22.546Z,1.00
2023-01-06T18:24:51.253Z,1.20
2023-01-06T18:27:34.199Z,1.03
2023-01-06T18:30:21.685Z,1.10
2023-01-06T18:32:49.766Z,1.13
2023-01-06T18:35:18.428Z,1.10
2023-01-06T18:37:45.217Z,1.40
2023-01-06T18:40:13.946Z,1.10
2023-01-06T18:42:41.567Z,1.50
2023-01-06T18:45:08.134Z,1.30
2023-01-06T18:47:36.143Z,1.27
2023-01-06T18:50:25.989Z,1.10
2023-01-06T18:53:00.219Z,1.20
2023-01-06T18:55:33.245Z,1.20
2023-01-06T18:58:13.651Z,1.10
2023-01-06T19:00:57.412Z,1.53
2023-01-06T19:03:37.917Z,1.30
2023-01-06T19:06:16.446Z,1.27
2023-01-06T19:08:44.802Z,1.60
2023-01-06T19:11:15.663Z,1.83
2023-01-06T19:13:42.262Z,1.90
2023-01-06T19:16:50.634Z,1.80
2023-01-06T19:19:22.553Z,1.63
2023-01-06T19:21:49.232Z,1.50
2023-01-06T19:24:28.270Z,1.40
2023-01-06T19:26:58.992Z,1.50
2023-01-06T19:29:32.673Z,1.60
2023-01-06T19:32:00.617Z,1.40
2023-01-06T19:34:27.337Z,1.57
2023-01-06T19:36:54.947Z,1.40
2023-01-06T19:39:36.694Z,1.50
2023-01-06T19:42:13.687Z,1.67
2023-01-06T19:44:40.322Z,1.30
2023-01-06T19:47:18.847Z,1.60
2023-01-06T19:49:49.633Z,1.57
2023-01-06T19:52:39.297Z,1.40
2023-01-06T19:55:19.222Z,1.37
2023-01-06T19:57:57.419Z,1.53
2023-01-06T20:00:31.905Z,1.30
2023-01-06T20:03:01.621Z,1.40
2023-01-06T20:05:28.787Z,1.33
2023-01-06T20:07:55.543Z,1.30
2023-01-06T20:10:22.222Z,1.33
2023-01-06T20:12:48.946Z,1.20
2023-01-06T20:15:15.920Z,1.33
2023-01-06T20:17:42.592Z,1.13
2023-01-06T20:20:09.678Z,1.20
2023-01-06T20:22:36.315Z,1.23
2023-01-06T20:25:03.085Z,1.20
2023-01-06T20:27:29.701Z,1.20
2023-01-06T20:29:56.353Z,0.80
2023-01-06T20:32:23.041Z,0.97
2023-01-06T20:34:49.723Z,0.93
2023-01-06T20:37:16.413Z,0.90
2023-01-06T20:39:43.192Z,0.87
2023-01-06T20:42:12.556Z,0.70
2023-01-06T20:44:39.839Z,0.70
2023-01-06T20:47:06.523Z,0.80
2023-01-06T20:49:33.211Z,0.73
2023-01-06T20:51:59.821Z,0.90
2023-01-06T20:54:26.425Z,0.80
2023-01-06T20:56:53.784Z,0.90
2023-01-06T20:59:20.389Z,0.80
2023-01-06T21:01:47.164Z,0.80
2023-01-06T21:04:13.819Z,0.80
2023-01-06T21:06:40.451Z,0.60
2023-01-06T21:09:07.035Z,0.60
2023-01-06T21:11:33.654Z,0.70
2023-01-06T21:14:00.269Z,0.80
2023-01-06T21:16:26.964Z,0.73
2023-01-06T21:18:53.588Z,0.60
2023-01-06T21:21:20.414Z,0.57
2023-01-06T21:23:47.076Z,0.77
2023-01-06T21:26:13.683Z,0.50
2023-01-06T21:28:40.267Z,0.60
2023-01-06T21:31:06.974Z,0.60
2023-01-06T21:33:33.613Z,0.40
2023-01-06T21:36:00.213Z,0.70
2023-01-06T21:38:26.801Z,0.50
2023-01-06T21:40:54.829Z,0.50
2023-01-06T21:43:21.441Z,0.40
2023-01-06T21:45:48.268Z,0.50
2023-01-06T21:48:15.000Z,0.47
2023-01-06T21:50:42.793Z,0.50
2023-01-06T21:53:10.073Z,0.50
2023-01-06T21:55:36.892Z,0.50
2023-01-06T21:58:03.508Z,0.40
2023-01-06T22:00:30.129Z,0.60
2023-01-06T22:02:56.886Z,0.63
2023-01-06T22:05:23.659Z,0.50
2023-01-06T22:07:51.548Z,0.60
2023-01-06T22:10:21.139Z,0.40
2023-01-06T22:12:47.964Z,0.63
2023-01-06T22:15:14.967Z,0.60
2023-01-06T22:17:41.562Z,0.60
2023-01-06T22:20:08.684Z,0.50
2023-01-06T22:22:35.278Z,0.80
2023-01-06T22:25:02.796Z,0.70
2023-01-06T22:27:29.391Z,0.60
2023-01-06T22:29:55.988Z,0.73
2023-01-06T22:32:22.632Z,0.57
2023-01-06T22:34:49.308Z,0.70
2023-01-06T22:37:15.915Z,0.50
2023-01-06T22:39:43.936Z,0.60
2023-01-06T22:42:10.532Z,0.60
2023-01-06T22:44:37.153Z,0.50
2023-01-06T22:47:03.856Z,0.60
2023-01-06T22:49:30.471Z,0.60
2023-01-06T22:51:57.099Z,0.57
2023-01-06T22:54:23.716Z,0.60
2023-01-06T22:56:50.324Z,0.57
2023-01-06T22:59:17.012Z,0.60
2023-01-06T23:01:43.796Z,0.70
2023-01-06T23:04:10.497Z,0.40
2023-01-06T23:06:37.146Z,0.53
2023-01-06T23:09:04.381Z,0.80
2023-01-06T23:11:32.682Z,0.67
2023-01-06T23:13:59.307Z,0.57
2023-01-06T23:16:26.961Z,0.70
2023-01-06T23:18:54.004Z,0.60
2023-01-06T23:21:22.654Z,0.50
2023-01-06T23:23:49.579Z,0.57
2023-01-06T23:26:21.739Z,0.60
2023-01-06T23:28:48.384Z,0.67
2023-01-06T23:31:19.861Z,0.40
2023-01-06T23:33:48.139Z,0.70
2023-01-06T23:36:15.928Z,0.50
2023-01-06T23:38:42.583Z,0.70
2023-01-06T23:41:17.999Z,0.53
2023-01-06T23:43:44.935Z,0.50
2023-01-06T23:46:13.271Z,0.50
2023-01-06T23:48:39.961Z,0.50
2023-01-06T23:51:06.987Z,0.40
2023-01-06T23:53:34.115Z,0.60
2023-01-06T23:56:08.552Z,0.47
2023-01-06T23:58:36.006Z,0.50
